sensor_id;sensor_type;location;lat;lon;timestamp;P1;durP1;ratioP1;P2;durP2;ratioP2
41705;SDS011;27385;51.096;17.190;2023-06-14T00:02:11;8.70;;;2.70;;
41705;SDS011;27385;51.096;17.190;2023-06-14T00:04:43;11.60;;;3.30;;
41705;SDS011;27385;51.096;17.190;2023-06-14T00:07:16;11.70;;;3.40;;
41705;SDS011;27385;51.096;17.190;2023-06-14T00:09:47;12.40;;;2.60;;
41705;SDS011;27385;51.096;17.190;2023-06-14T00:12:21;11.60;;;3.00;;
41705;SDS011;27385;51.096;17.190;2023-06-14T00:14:52;9.60;;;2.40;;
41705;SDS011;27385;51.096;17.190;2023-06-14T00:17:23;9.30;;;2.90;;
41705;SDS011;27385;51.096;17.190;2023-06-14T00:19:58;11.20;;;3.40;;
41705;SDS011;27385;51.096;17.190;2023-06-14T00:22:31;11.60;;;2.60;;
41705;SDS011;27385;51.096;17.190;2023-06-14T00:25:05;10.20;;;2.90;;
41705;SDS011;27385;51.096;17.190;2023-06-14T00:27:36;8.70;;;2.80;;
41705;SDS011;27385;51.096;17.190;2023-06-14T00:30:08;11.90;;;2.70;;
41705;SDS011;27385;51.096;17.190;2023-06-14T00:32:40;10.90;;;2.80;;
41705;SDS011;27385;51.096;17.190;2023-06-14T00:38:03;12.80;;;2.50;;
41705;SDS011;27385;51.096;17.190;2023-06-14T00:40:34;11.40;;;3.40;;
41705;SDS011;27385;51.096;17.190;2023-06-14T00:43:05;11.80;;;3.20;;
41705;SDS011;27385;51.096;17.190;2023-06-14T00:45:36;11.80;;;2.80;;
41705;SDS011;27385;51.096;17.190;2023-06-14T00:48:07;11.00;;;2.50;;
41705;SDS011;27385;51.096;17.190;2023-06-14T00:50:40;10.80;;;2.80;;
41705;SDS011;27385;51.096;17.190;2023-06-14T00:53:13;12.10;;;3.00;;
41705;SDS011;27385;51.096;17.190;2023-06-14T00:55:46;11.90;;;3.10;;
41705;SDS011;27385;51.096;17.190;2023-06-14T00:58:17;10.30;;;3.10;;
41705;SDS011;27385;51.096;17.190;2023-06-14T01:00:48;8.30;;;2.10;;
41705;SDS011;27385;51.096;17.190;2023-06-14T01:03:20;11.50;;;3.30;;
41705;SDS011;27385;51.096;17.190;2023-06-14T01:06:03;7.20;;;2.20;;
41705;SDS011;27385;51.096;17.190;2023-06-14T01:08:43;8.90;;;3.10;;
41705;SDS011;27385;51.096;17.190;2023-06-14T01:11:22;9.50;;;2.70;;
41705;SDS011;27385;51.096;17.190;2023-06-14T01:13:57;7.30;;;2.30;;
41705;SDS011;27385;51.096;17.190;2023-06-14T01:16:31;12.40;;;3.00;;
41705;SDS011;27385;51.096;17.190;2023-06-14T01:19:03;7.80;;;2.70;;
41705;SDS011;27385;51.096;17.190;2023-06-14T01:21:34;10.90;;;3.00;;
41705;SDS011;27385;51.096;17.190;2023-06-14T01:24:09;11.40;;;2.70;;
41705;SDS011;27385;51.096;17.190;2023-06-14T01:26:41;12.40;;;3.20;;
41705;SDS011;27385;51.096;17.190;2023-06-14T01:29:13;11.60;;;3.20;;
41705;SDS011;27385;51.096;17.190;2023-06-14T01:31:45;11.60;;;3.30;;
41705;SDS011;27385;51.096;17.190;2023-06-14T01:34:17;12.00;;;3.40;;
41705;SDS011;27385;51.096;17.190;2023-06-14T01:36:48;9.90;;;3.30;;
41705;SDS011;27385;51.096;17.190;2023-06-14T01:39:22;13.10;;;3.70;;
41705;SDS011;27385;51.096;17.190;2023-06-14T01:41:54;12.10;;;4.00;;
41705;SDS011;27385;51.096;17.190;2023-06-14T01:44:25;11.10;;;3.20;;
41705;SDS011;27385;51.096;17.190;2023-06-14T01:46:58;8.50;;;2.50;;
41705;SDS011;27385;51.096;17.190;2023-06-14T01:49:29;12.30;;;3.60;;
41705;SDS011;27385;51.096;17.190;2023-06-14T01:52:04;12.30;;;3.40;;
41705;SDS011;27385;51.096;17.190;2023-06-14T01:54:37;12.30;;;3.50;;
41705;SDS011;27385;51.096;17.190;2023-06-14T01:57:09;9.00;;;2.90;;
41705;SDS011;27385;51.096;17.190;2023-06-14T01:59:40;11.90;;;3.70;;
41705;SDS011;27385;51.096;17.190;2023-06-14T02:02:16;11.40;;;3.40;;
41705;SDS011;27385;51.096;17.190;2023-06-14T02:04:47;8.90;;;2.70;;
41705;SDS011;27385;51.096;17.190;2023-06-14T02:07:18;11.90;;;3.10;;
41705;SDS011;27385;51.096;17.190;2023-06-14T02:09:49;10.90;;;3.30;;
41705;SDS011;27385;51.096;17.190;2023-06-14T02:12:20;10.00;;;3.40;;
41705;SDS011;27385;51.096;17.190;2023-06-14T02:14:51;10.30;;;3.10;;
41705;SDS011;27385;51.096;17.190;2023-06-14T02:17:22;12.30;;;3.90;;
41705;SDS011;27385;51.096;17.190;2023-06-14T02:19:53;11.80;;;3.60;;
41705;SDS011;27385;51.096;17.190;2023-06-14T02:22:25;10.20;;;3.20;;
41705;SDS011;27385;51.096;17.190;2023-06-14T02:24:55;14.50;;;3.70;;
41705;SDS011;27385;51.096;17.190;2023-06-14T02:27:26;9.80;;;3.10;;
41705;SDS011;27385;51.096;17.190;2023-06-14T02:29:57;11.10;;;4.50;;
41705;SDS011;27385;51.096;17.190;2023-06-14T02:32:29;13.30;;;3.60;;
41705;SDS011;27385;51.096;17.190;2023-06-14T02:35:02;9.90;;;3.30;;
41705;SDS011;27385;51.096;17.190;2023-06-14T02:37:33;11.20;;;3.90;;
41705;SDS011;27385;51.096;17.190;2023-06-14T02:40:05;10.70;;;3.40;;
41705;SDS011;27385;51.096;17.190;2023-06-14T02:42:37;11.60;;;3.10;;
41705;SDS011;27385;51.096;17.190;2023-06-14T02:45:09;10.40;;;3.20;;
41705;SDS011;27385;51.096;17.190;2023-06-14T02:47:40;10.40;;;3.10;;
41705;SDS011;27385;51.096;17.190;2023-06-14T02:50:11;9.80;;;3.40;;
41705;SDS011;27385;51.096;17.190;2023-06-14T02:52:42;11.50;;;3.10;;
41705;SDS011;27385;51.096;17.190;2023-06-14T02:55:13;12.30;;;3.50;;
41705;SDS011;27385;51.096;17.190;2023-06-14T02:57:44;12.90;;;3.00;;
41705;SDS011;27385;51.096;17.190;2023-06-14T03:00:16;12.10;;;3.90;;
41705;SDS011;27385;51.096;17.190;2023-06-14T03:02:48;11.20;;;3.60;;
41705;SDS011;27385;51.096;17.190;2023-06-14T03:05:19;11.20;;;3.40;;
41705;SDS011;27385;51.096;17.190;2023-06-14T03:07:50;10.20;;;3.20;;
41705;SDS011;27385;51.096;17.190;2023-06-14T03:10:21;11.60;;;3.30;;
41705;SDS011;27385;51.096;17.190;2023-06-14T03:12:56;11.10;;;3.30;;
41705;SDS011;27385;51.096;17.190;2023-06-14T03:15:28;11.80;;;3.40;;
41705;SDS011;27385;51.096;17.190;2023-06-14T03:18:01;11.50;;;3.60;;
41705;SDS011;27385;51.096;17.190;2023-06-14T03:20:32;9.30;;;3.70;;
41705;SDS011;27385;51.096;17.190;2023-06-14T03:23:04;10.50;;;3.30;;
41705;SDS011;27385;51.096;17.190;2023-06-14T03:25:35;11.50;;;3.80;;
41705;SDS011;27385;51.096;17.190;2023-06-14T03:28:06;16.00;;;3.10;;
41705;SDS011;27385;51.096;17.190;2023-06-14T03:30:37;11.80;;;3.90;;
41705;SDS011;27385;51.096;17.190;2023-06-14T03:33:08;12.60;;;3.80;;
41705;SDS011;27385;51.096;17.190;2023-06-14T03:35:39;12.70;;;4.50;;
41705;SDS011;27385;51.096;17.190;2023-06-14T03:38:10;12.40;;;4.00;;
41705;SDS011;27385;51.096;17.190;2023-06-14T03:40:41;13.80;;;4.60;;
41705;SDS011;27385;51.096;17.190;2023-06-14T03:43:13;12.80;;;4.40;;
41705;SDS011;27385;51.096;17.190;2023-06-14T03:45:44;12.20;;;3.60;;
41705;SDS011;27385;51.096;17.190;2023-06-14T03:48:14;12.00;;;4.10;;
41705;SDS011;27385;51.096;17.190;2023-06-14T03:50:45;14.40;;;4.10;;
41705;SDS011;27385;51.096;17.190;2023-06-14T03:53:16;14.70;;;3.70;;
41705;SDS011;27385;51.096;17.190;2023-06-14T03:55:48;13.90;;;4.70;;
41705;SDS011;27385;51.096;17.190;2023-06-14T03:58:20;11.10;;;4.10;;
41705;SDS011;27385;51.096;17.190;2023-06-14T04:00:51;17.50;;;5.40;;
41705;SDS011;27385;51.096;17.190;2023-06-14T04:03:21;10.90;;;3.90;;
41705;SDS011;27385;51.096;17.190;2023-06-14T04:05:57;11.50;;;4.30;;
41705;SDS011;27385;51.096;17.190;2023-06-14T04:08:28;13.00;;;4.40;;
41705;SDS011;27385;51.096;17.190;2023-06-14T04:10:59;12.90;;;4.90;;
41705;SDS011;27385;51.096;17.190;2023-06-14T04:13:30;11.20;;;3.70;;
41705;SDS011;27385;51.096;17.190;2023-06-14T04:16:03;13.70;;;5.10;;
41705;SDS011;27385;51.096;17.190;2023-06-14T04:18:34;12.50;;;3.80;;
41705;SDS011;27385;51.096;17.190;2023-06-14T04:21:05;13.20;;;4.50;;
41705;SDS011;27385;51.096;17.190;2023-06-14T04:23:36;14.90;;;4.50;;
41705;SDS011;27385;51.096;17.190;2023-06-14T04:26:12;17.00;;;5.20;;
41705;SDS011;27385;51.096;17.190;2023-06-14T04:28:43;11.60;;;4.40;;
41705;SDS011;27385;51.096;17.190;2023-06-14T04:31:14;13.10;;;5.10;;
41705;SDS011;27385;51.096;17.190;2023-06-14T04:33:46;13.80;;;5.20;;
41705;SDS011;27385;51.096;17.190;2023-06-14T04:36:18;11.20;;;4.50;;
41705;SDS011;27385;51.096;17.190;2023-06-14T04:38:50;12.80;;;4.50;;
41705;SDS011;27385;51.096;17.190;2023-06-14T04:41:22;14.20;;;5.00;;
41705;SDS011;27385;51.096;17.190;2023-06-14T04:43:58;13.60;;;5.00;;
41705;SDS011;27385;51.096;17.190;2023-06-14T04:46:30;16.50;;;5.70;;
41705;SDS011;27385;51.096;17.190;2023-06-14T04:49:11;11.20;;;4.50;;
41705;SDS011;27385;51.096;17.190;2023-06-14T04:51:44;15.60;;;6.70;;
41705;SDS011;27385;51.096;17.190;2023-06-14T04:54:18;17.60;;;5.40;;
41705;SDS011;27385;51.096;17.190;2023-06-14T04:56:49;15.40;;;5.70;;
41705;SDS011;27385;51.096;17.190;2023-06-14T04:59:20;14.90;;;5.90;;
41705;SDS011;27385;51.096;17.190;2023-06-14T05:01:52;14.70;;;4.70;;
41705;SDS011;27385;51.096;17.190;2023-06-14T05:04:24;17.90;;;5.50;;
41705;SDS011;27385;51.096;17.190;2023-06-14T05:06:56;13.80;;;5.80;;
41705;SDS011;27385;51.096;17.190;2023-06-14T05:09:26;16.40;;;7.10;;
41705;SDS011;27385;51.096;17.190;2023-06-14T05:11:57;18.20;;;6.90;;
41705;SDS011;27385;51.096;17.190;2023-06-14T05:14:29;20.50;;;7.50;;
41705;SDS011;27385;51.096;17.190;2023-06-14T05:16:59;18.50;;;7.40;;
41705;SDS011;27385;51.096;17.190;2023-06-14T05:19:31;18.00;;;7.60;;
41705;SDS011;27385;51.096;17.190;2023-06-14T05:22:02;17.10;;;6.80;;
41705;SDS011;27385;51.096;17.190;2023-06-14T05:24:33;19.90;;;7.70;;
41705;SDS011;27385;51.096;17.190;2023-06-14T05:27:05;21.50;;;8.30;;
41705;SDS011;27385;51.096;17.190;2023-06-14T05:29:37;17.90;;;7.90;;
41705;SDS011;27385;51.096;17.190;2023-06-14T05:32:08;22.40;;;9.00;;
41705;SDS011;27385;51.096;17.190;2023-06-14T05:34:39;19.30;;;8.70;;
41705;SDS011;27385;51.096;17.190;2023-06-14T05:37:10;22.10;;;8.80;;
41705;SDS011;27385;51.096;17.190;2023-06-14T05:39:41;23.00;;;9.80;;
41705;SDS011;27385;51.096;17.190;2023-06-14T05:42:12;21.90;;;9.90;;
41705;SDS011;27385;51.096;17.190;2023-06-14T05:44:43;25.60;;;11.70;;
41705;SDS011;27385;51.096;17.190;2023-06-14T05:47:14;26.60;;;11.00;;
41705;SDS011;27385;51.096;17.190;2023-06-14T05:49:45;27.80;;;12.10;;
41705;SDS011;27385;51.096;17.190;2023-06-14T05:52:16;25.60;;;11.10;;
41705;SDS011;27385;51.096;17.190;2023-06-14T05:54:47;23.80;;;10.90;;
41705;SDS011;27385;51.096;17.190;2023-06-14T05:57:18;27.00;;;11.40;;
41705;SDS011;27385;51.096;17.190;2023-06-14T05:59:49;27.20;;;12.90;;
41705;SDS011;27385;51.096;17.190;2023-06-14T06:02:20;27.00;;;11.90;;
41705;SDS011;27385;51.096;17.190;2023-06-14T06:04:50;31.40;;;15.10;;
41705;SDS011;27385;51.096;17.190;2023-06-14T06:07:22;24.60;;;11.10;;
41705;SDS011;27385;51.096;17.190;2023-06-14T06:09:52;24.90;;;11.70;;
41705;SDS011;27385;51.096;17.190;2023-06-14T06:12:23;28.00;;;12.50;;
41705;SDS011;27385;51.096;17.190;2023-06-14T06:14:54;27.00;;;12.60;;
41705;SDS011;27385;51.096;17.190;2023-06-14T06:17:26;31.10;;;14.50;;
41705;SDS011;27385;51.096;17.190;2023-06-14T06:19:57;25.80;;;11.90;;
41705;SDS011;27385;51.096;17.190;2023-06-14T06:22:28;25.80;;;11.30;;
41705;SDS011;27385;51.096;17.190;2023-06-14T06:24:59;31.30;;;13.60;;
41705;SDS011;27385;51.096;17.190;2023-06-14T06:27:30;24.90;;;11.90;;
41705;SDS011;27385;51.096;17.190;2023-06-14T06:30:01;27.10;;;11.80;;
41705;SDS011;27385;51.096;17.190;2023-06-14T06:32:33;25.20;;;11.60;;
41705;SDS011;27385;51.096;17.190;2023-06-14T06:35:04;27.60;;;12.30;;
41705;SDS011;27385;51.096;17.190;2023-06-14T06:37:38;27.80;;;12.70;;
41705;SDS011;27385;51.096;17.190;2023-06-14T06:40:10;28.00;;;12.80;;
41705;SDS011;27385;51.096;17.190;2023-06-14T06:42:41;24.90;;;11.10;;
41705;SDS011;27385;51.096;17.190;2023-06-14T06:45:12;24.70;;;11.10;;
41705;SDS011;27385;51.096;17.190;2023-06-14T06:47:43;24.50;;;10.90;;
41705;SDS011;27385;51.096;17.190;2023-06-14T06:50:14;24.40;;;10.60;;
41705;SDS011;27385;51.096;17.190;2023-06-14T06:52:46;26.40;;;10.90;;
41705;SDS011;27385;51.096;17.190;2023-06-14T06:55:18;23.90;;;11.70;;
41705;SDS011;27385;51.096;17.190;2023-06-14T06:57:49;25.90;;;11.20;;
41705;SDS011;27385;51.096;17.190;2023-06-14T07:00:21;23.30;;;11.70;;
41705;SDS011;27385;51.096;17.190;2023-06-14T07:02:52;23.80;;;10.90;;
41705;SDS011;27385;51.096;17.190;2023-06-14T07:05:24;23.00;;;10.50;;
41705;SDS011;27385;51.096;17.190;2023-06-14T07:07:55;23.30;;;11.30;;
41705;SDS011;27385;51.096;17.190;2023-06-14T07:10:26;24.00;;;11.10;;
41705;SDS011;27385;51.096;17.190;2023-06-14T07:12:58;24.80;;;11.90;;
41705;SDS011;27385;51.096;17.190;2023-06-14T07:15:29;25.70;;;10.60;;
41705;SDS011;27385;51.096;17.190;2023-06-14T07:17:59;23.80;;;10.30;;
41705;SDS011;27385;51.096;17.190;2023-06-14T07:20:30;26.80;;;11.10;;
41705;SDS011;27385;51.096;17.190;2023-06-14T07:23:01;25.60;;;10.60;;
41705;SDS011;27385;51.096;17.190;2023-06-14T07:25:32;25.40;;;9.80;;
41705;SDS011;27385;51.096;17.190;2023-06-14T07:28:03;25.80;;;12.30;;
41705;SDS011;27385;51.096;17.190;2023-06-14T07:30:35;21.40;;;10.30;;
41705;SDS011;27385;51.096;17.190;2023-06-14T07:33:06;21.00;;;9.70;;
41705;SDS011;27385;51.096;17.190;2023-06-14T07:35:38;22.90;;;9.90;;
41705;SDS011;27385;51.096;17.190;2023-06-14T07:38:09;23.70;;;11.00;;
41705;SDS011;27385;51.096;17.190;2023-06-14T07:40:39;22.80;;;10.70;;
41705;SDS011;27385;51.096;17.190;2023-06-14T07:43:10;24.80;;;10.60;;
41705;SDS011;27385;51.096;17.190;2023-06-14T07:45:41;24.00;;;11.40;;
41705;SDS011;27385;51.096;17.190;2023-06-14T07:48:13;22.40;;;10.40;;
41705;SDS011;27385;51.096;17.190;2023-06-14T07:50:44;25.20;;;11.30;;
41705;SDS011;27385;51.096;17.190;2023-06-14T07:53:15;23.90;;;11.40;;
41705;SDS011;27385;51.096;17.190;2023-06-14T07:55:46;24.60;;;10.90;;
41705;SDS011;27385;51.096;17.190;2023-06-14T07:58:17;21.10;;;9.60;;
41705;SDS011;27385;51.096;17.190;2023-06-14T08:00:48;22.20;;;9.50;;
41705;SDS011;27385;51.096;17.190;2023-06-14T08:03:19;17.80;;;8.10;;
41705;SDS011;27385;51.096;17.190;2023-06-14T08:05:50;18.90;;;8.30;;
41705;SDS011;27385;51.096;17.190;2023-06-14T08:08:21;18.70;;;8.50;;
41705;SDS011;27385;51.096;17.190;2023-06-14T08:10:52;18.50;;;7.50;;
41705;SDS011;27385;51.096;17.190;2023-06-14T08:13:23;20.10;;;7.90;;
41705;SDS011;27385;51.096;17.190;2023-06-14T08:15:54;18.10;;;7.70;;
41705;SDS011;27385;51.096;17.190;2023-06-14T08:18:26;17.70;;;6.60;;
41705;SDS011;27385;51.096;17.190;2023-06-14T08:20:58;18.50;;;8.00;;
41705;SDS011;27385;51.096;17.190;2023-06-14T08:23:29;19.90;;;8.00;;
41705;SDS011;27385;51.096;17.190;2023-06-14T08:26:00;21.20;;;9.00;;
41705;SDS011;27385;51.096;17.190;2023-06-14T08:28:32;20.30;;;7.90;;
41705;SDS011;27385;51.096;17.190;2023-06-14T08:31:03;17.70;;;7.70;;
41705;SDS011;27385;51.096;17.190;2023-06-14T08:33:34;19.30;;;8.70;;
41705;SDS011;27385;51.096;17.190;2023-06-14T08:36:05;22.20;;;8.00;;
41705;SDS011;27385;51.096;17.190;2023-06-14T08:38:36;19.70;;;7.20;;
41705;SDS011;27385;51.096;17.190;2023-06-14T08:41:07;15.10;;;6.30;;
41705;SDS011;27385;51.096;17.190;2023-06-14T08:43:41;15.50;;;6.40;;
41705;SDS011;27385;51.096;17.190;2023-06-14T08:46:12;16.50;;;5.90;;
41705;SDS011;27385;51.096;17.190;2023-06-14T08:48:47;14.80;;;5.10;;
41705;SDS011;27385;51.096;17.190;2023-06-14T08:51:20;15.90;;;5.90;;
41705;SDS011;27385;51.096;17.190;2023-06-14T08:53:54;14.00;;;5.10;;
41705;SDS011;27385;51.096;17.190;2023-06-14T08:56:27;14.70;;;5.00;;
41705;SDS011;27385;51.096;17.190;2023-06-14T08:58:58;14.70;;;4.60;;
41705;SDS011;27385;51.096;17.190;2023-06-14T09:01:32;16.80;;;5.40;;
41705;SDS011;27385;51.096;17.190;2023-06-14T09:04:07;12.00;;;3.40;;
41705;SDS011;27385;51.096;17.190;2023-06-14T09:06:39;12.50;;;3.70;;
41705;SDS011;27385;51.096;17.190;2023-06-14T09:09:14;11.50;;;3.40;;
41705;SDS011;27385;51.096;17.190;2023-06-14T09:11:45;9.60;;;2.50;;
41705;SDS011;27385;51.096;17.190;2023-06-14T09:14:17;10.90;;;2.40;;
41705;SDS011;27385;51.096;17.190;2023-06-14T09:16:51;9.60;;;2.00;;
41705;SDS011;27385;51.096;17.190;2023-06-14T09:19:24;12.40;;;2.60;;
41705;SDS011;27385;51.096;17.190;2023-06-14T09:21:55;16.00;;;2.60;;
41705;SDS011;27385;51.096;17.190;2023-06-14T09:24:26;9.60;;;2.40;;
41705;SDS011;27385;51.096;17.190;2023-06-14T09:26:57;8.80;;;2.00;;
41705;SDS011;27385;51.096;17.190;2023-06-14T09:29:28;7.50;;;2.80;;
41705;SDS011;27385;51.096;17.190;2023-06-14T09:31:59;10.50;;;1.90;;
41705;SDS011;27385;51.096;17.190;2023-06-14T09:34:30;12.30;;;2.30;;
41705;SDS011;27385;51.096;17.190;2023-06-14T09:37:02;5.00;;;1.30;;
41705;SDS011;27385;51.096;17.190;2023-06-14T09:39:34;6.90;;;1.80;;
41705;SDS011;27385;51.096;17.190;2023-06-14T09:42:17;5.80;;;1.60;;
41705;SDS011;27385;51.096;17.190;2023-06-14T09:44:48;10.00;;;2.20;;
41705;SDS011;27385;51.096;17.190;2023-06-14T09:47:20;8.20;;;2.00;;
41705;SDS011;27385;51.096;17.190;2023-06-14T09:49:52;7.60;;;1.70;;
41705;SDS011;27385;51.096;17.190;2023-06-14T09:52:24;8.50;;;1.80;;
41705;SDS011;27385;51.096;17.190;2023-06-14T09:54:57;10.30;;;2.10;;
41705;SDS011;27385;51.096;17.190;2023-06-14T09:57:34;5.80;;;1.90;;
41705;SDS011;27385;51.096;17.190;2023-06-14T10:00:07;8.90;;;1.90;;
41705;SDS011;27385;51.096;17.190;2023-06-14T10:02:40;9.80;;;1.90;;
41705;SDS011;27385;51.096;17.190;2023-06-14T10:05:18;11.40;;;2.10;;
41705;SDS011;27385;51.096;17.190;2023-06-14T10:08:13;8.40;;;1.90;;
41705;SDS011;27385;51.096;17.190;2023-06-14T10:10:47;8.10;;;2.10;;
41705;SDS011;27385;51.096;17.190;2023-06-14T10:13:19;11.60;;;1.70;;
41705;SDS011;27385;51.096;17.190;2023-06-14T10:15:52;7.70;;;1.80;;
41705;SDS011;27385;51.096;17.190;2023-06-14T10:18:30;7.80;;;1.70;;
41705;SDS011;27385;51.096;17.190;2023-06-14T10:21:13;7.90;;;1.90;;
41705;SDS011;27385;51.096;17.190;2023-06-14T10:24:07;8.20;;;2.30;;
41705;SDS011;27385;51.096;17.190;2023-06-14T10:26:51;7.10;;;1.60;;
41705;SDS011;27385;51.096;17.190;2023-06-14T10:29:22;8.30;;;1.90;;
41705;SDS011;27385;51.096;17.190;2023-06-14T10:31:56;9.50;;;1.80;;
41705;SDS011;27385;51.096;17.190;2023-06-14T10:34:28;6.30;;;1.60;;
41705;SDS011;27385;51.096;17.190;2023-06-14T10:37:04;7.60;;;1.90;;
41705;SDS011;27385;51.096;17.190;2023-06-14T10:39:37;10.40;;;1.90;;
41705;SDS011;27385;51.096;17.190;2023-06-14T10:42:10;8.30;;;1.60;;
41705;SDS011;27385;51.096;17.190;2023-06-14T10:44:42;10.30;;;1.90;;
41705;SDS011;27385;51.096;17.190;2023-06-14T10:47:24;9.20;;;1.80;;
41705;SDS011;27385;51.096;17.190;2023-06-14T10:49:57;7.80;;;1.70;;
41705;SDS011;27385;51.096;17.190;2023-06-14T10:52:34;9.10;;;2.50;;
41705;SDS011;27385;51.096;17.190;2023-06-14T10:55:08;8.20;;;1.70;;
41705;SDS011;27385;51.096;17.190;2023-06-14T10:57:42;7.90;;;1.80;;
41705;SDS011;27385;51.096;17.190;2023-06-14T11:00:16;7.40;;;1.60;;
41705;SDS011;27385;51.096;17.190;2023-06-14T11:02:51;11.90;;;2.60;;
41705;SDS011;27385;51.096;17.190;2023-06-14T11:05:48;8.10;;;1.70;;
41705;SDS011;27385;51.096;17.190;2023-06-14T11:08:27;6.90;;;1.80;;
41705;SDS011;27385;51.096;17.190;2023-06-14T11:11:08;5.60;;;1.50;;
41705;SDS011;27385;51.096;17.190;2023-06-14T11:13:41;8.00;;;1.90;;
41705;SDS011;27385;51.096;17.190;2023-06-14T11:16:14;6.60;;;1.80;;
41705;SDS011;27385;51.096;17.190;2023-06-14T11:18:46;9.90;;;1.80;;
41705;SDS011;27385;51.096;17.190;2023-06-14T11:21:18;5.50;;;1.50;;
41705;SDS011;27385;51.096;17.190;2023-06-14T11:23:52;7.60;;;1.60;;
41705;SDS011;27385;51.096;17.190;2023-06-14T11:26:26;9.60;;;1.50;;
41705;SDS011;27385;51.096;17.190;2023-06-14T11:28:58;6.70;;;1.70;;
41705;SDS011;27385;51.096;17.190;2023-06-14T11:31:30;8.60;;;1.50;;
41705;SDS011;27385;51.096;17.190;2023-06-14T11:34:01;7.30;;;1.70;;
41705;SDS011;27385;51.096;17.190;2023-06-14T11:36:34;9.80;;;1.70;;
41705;SDS011;27385;51.096;17.190;2023-06-14T11:39:05;10.20;;;2.10;;
41705;SDS011;27385;51.096;17.190;2023-06-14T11:41:40;7.20;;;1.40;;
41705;SDS011;27385;51.096;17.190;2023-06-14T11:44:12;9.50;;;1.50;;
41705;SDS011;27385;51.096;17.190;2023-06-14T11:46:46;9.90;;;1.90;;
41705;SDS011;27385;51.096;17.190;2023-06-14T11:49:18;7.30;;;1.50;;
41705;SDS011;27385;51.096;17.190;2023-06-14T11:51:49;6.00;;;1.30;;
41705;SDS011;27385;51.096;17.190;2023-06-14T11:54:22;10.60;;;1.90;;
41705;SDS011;27385;51.096;17.190;2023-06-14T11:56:53;5.20;;;1.40;;
41705;SDS011;27385;51.096;17.190;2023-06-14T11:59:24;6.30;;;1.40;;
41705;SDS011;27385;51.096;17.190;2023-06-14T12:01:56;8.10;;;1.50;;
41705;SDS011;27385;51.096;17.190;2023-06-14T12:04:27;7.90;;;1.80;;
41705;SDS011;27385;51.096;17.190;2023-06-14T12:07:02;5.40;;;1.40;;
41705;SDS011;27385;51.096;17.190;2023-06-14T12:09:46;5.40;;;1.50;;
41705;SDS011;27385;51.096;17.190;2023-06-14T12:12:37;6.00;;;1.30;;
41705;SDS011;27385;51.096;17.190;2023-06-14T12:15:10;7.20;;;1.30;;
41705;SDS011;27385;51.096;17.190;2023-06-14T12:17:41;7.20;;;1.50;;
41705;SDS011;27385;51.096;17.190;2023-06-14T12:20:14;13.50;;;2.30;;
41705;SDS011;27385;51.096;17.190;2023-06-14T12:22:52;9.70;;;1.60;;
41705;SDS011;27385;51.096;17.190;2023-06-14T12:25:25;6.90;;;1.60;;
41705;SDS011;27385;51.096;17.190;2023-06-14T12:27:58;8.20;;;1.60;;
41705;SDS011;27385;51.096;17.190;2023-06-14T12:30:33;9.00;;;1.50;;
41705;SDS011;27385;51.096;17.190;2023-06-14T12:33:05;7.50;;;1.80;;
41705;SDS011;27385;51.096;17.190;2023-06-14T12:35:36;8.20;;;1.70;;
41705;SDS011;27385;51.096;17.190;2023-06-14T12:38:07;6.80;;;1.50;;
41705;SDS011;27385;51.096;17.190;2023-06-14T12:40:38;8.10;;;1.60;;
41705;SDS011;27385;51.096;17.190;2023-06-14T12:43:10;7.80;;;1.70;;
41705;SDS011;27385;51.096;17.190;2023-06-14T12:45:41;13.10;;;4.90;;
41705;SDS011;27385;51.096;17.190;2023-06-14T12:48:11;8.10;;;1.80;;
41705;SDS011;27385;51.096;17.190;2023-06-14T12:50:43;10.40;;;2.30;;
41705;SDS011;27385;51.096;17.190;2023-06-14T12:53:13;12.00;;;2.10;;
41705;SDS011;27385;51.096;17.190;2023-06-14T12:55:44;8.40;;;1.80;;
41705;SDS011;27385;51.096;17.190;2023-06-14T12:58:15;9.70;;;2.30;;
41705;SDS011;27385;51.096;17.190;2023-06-14T13:00:47;6.80;;;2.00;;
41705;SDS011;27385;51.096;17.190;2023-06-14T13:03:18;11.90;;;2.20;;
41705;SDS011;27385;51.096;17.190;2023-06-14T13:05:49;7.90;;;1.90;;
41705;SDS011;27385;51.096;17.190;2023-06-14T13:08:20;7.50;;;1.70;;
41705;SDS011;27385;51.096;17.190;2023-06-14T13:10:51;8.00;;;1.90;;
41705;SDS011;27385;51.096;17.190;2023-06-14T13:13:22;9.60;;;1.80;;
41705;SDS011;27385;51.096;17.190;2023-06-14T13:15:53;6.30;;;1.50;;
41705;SDS011;27385;51.096;17.190;2023-06-14T13:18:24;8.20;;;1.70;;
41705;SDS011;27385;51.096;17.190;2023-06-14T13:20:55;9.30;;;1.80;;
41705;SDS011;27385;51.096;17.190;2023-06-14T13:23:27;8.90;;;1.60;;
41705;SDS011;27385;51.096;17.190;2023-06-14T13:25:58;7.90;;;2.20;;
41705;SDS011;27385;51.096;17.190;2023-06-14T13:28:29;7.50;;;1.70;;
41705;SDS011;27385;51.096;17.190;2023-06-14T13:31:00;9.10;;;2.00;;
41705;SDS011;27385;51.096;17.190;2023-06-14T13:33:31;7.20;;;1.60;;
41705;SDS011;27385;51.096;17.190;2023-06-14T13:36:03;16.60;;;2.30;;
41705;SDS011;27385;51.096;17.190;2023-06-14T13:38:34;8.40;;;2.10;;
41705;SDS011;27385;51.096;17.190;2023-06-14T13:41:06;12.60;;;2.30;;
41705;SDS011;27385;51.096;17.190;2023-06-14T13:43:37;5.60;;;1.40;;
41705;SDS011;27385;51.096;17.190;2023-06-14T13:46:08;6.70;;;1.40;;
41705;SDS011;27385;51.096;17.190;2023-06-14T13:48:39;8.30;;;1.80;;
41705;SDS011;27385;51.096;17.190;2023-06-14T13:51:11;7.90;;;1.30;;
41705;SDS011;27385;51.096;17.190;2023-06-14T13:53:45;6.00;;;1.30;;
41705;SDS011;27385;51.096;17.190;2023-06-14T13:56:18;8.70;;;1.30;;
41705;SDS011;27385;51.096;17.190;2023-06-14T13:58:50;7.10;;;1.20;;
41705;SDS011;27385;51.096;17.190;2023-06-14T14:01:21;4.70;;;1.30;;
41705;SDS011;27385;51.096;17.190;2023-06-14T14:03:53;5.80;;;1.20;;
41705;SDS011;27385;51.096;17.190;2023-06-14T14:06:24;5.60;;;1.40;;
41705;SDS011;27385;51.096;17.190;2023-06-14T14:08:55;7.90;;;1.10;;
41705;SDS011;27385;51.096;17.190;2023-06-14T14:11:27;9.60;;;1.30;;
41705;SDS011;27385;51.096;17.190;2023-06-14T14:14:01;5.70;;;1.40;;
41705;SDS011;27385;51.096;17.190;2023-06-14T14:16:32;5.50;;;1.80;;
41705;SDS011;27385;51.096;17.190;2023-06-14T14:19:04;8.30;;;1.60;;
41705;SDS011;27385;51.096;17.190;2023-06-14T14:21:35;7.90;;;1.90;;
41705;SDS011;27385;51.096;17.190;2023-06-14T14:24:06;5.30;;;1.40;;
41705;SDS011;27385;51.096;17.190;2023-06-14T14:26:38;6.30;;;1.60;;
41705;SDS011;27385;51.096;17.190;2023-06-14T14:29:09;8.40;;;1.80;;
41705;SDS011;27385;51.096;17.190;2023-06-14T14:31:40;7.80;;;1.70;;
41705;SDS011;27385;51.096;17.190;2023-06-14T14:34:11;10.30;;;1.90;;
41705;SDS011;27385;51.096;17.190;2023-06-14T14:36:43;9.20;;;2.60;;
41705;SDS011;27385;51.096;17.190;2023-06-14T14:39:15;18.70;;;5.20;;
41705;SDS011;27385;51.096;17.190;2023-06-14T14:41:46;13.20;;;3.70;;
41705;SDS011;27385;51.096;17.190;2023-06-14T14:44:18;12.60;;;2.70;;
41705;SDS011;27385;51.096;17.190;2023-06-14T14:46:50;9.50;;;2.20;;
41705;SDS011;27385;51.096;17.190;2023-06-14T14:49:22;11.80;;;2.60;;
41705;SDS011;27385;51.096;17.190;2023-06-14T14:51:53;9.50;;;3.10;;
41705;SDS011;27385;51.096;17.190;2023-06-14T14:54:26;8.70;;;2.10;;
41705;SDS011;27385;51.096;17.190;2023-06-14T14:56:58;11.50;;;2.00;;